Lacelle, Iowa
Current Conditions -  °F | °C
As of 1:35 PM on Tuesday 21 Oct 2014 (Local Time) from KI75 Reporting Station
Clear Clear  
Wind Chill: 67°   Ceiling: Unl
Heat Index: 67°   Visibility: 7mi
Dew Point: 45°   Wind: 5mph
Humidity: 44%   Direction: 60°ENE
Pressure: 30.12"   Gusts: NA
Location:  41.0111°N, 93.7971°W
Report Text: KI75 211835Z AUTO 06004KT 7SM CLR 20/07 A3012 RMK AO2 T01970070
Loading
Personal Weather Stations






























Interactive Weather Map
Tropical Storm Tracking
New forecast layout! Learn more

10-Day Weather Forecast

Advertisements
Track Severe Weather on mobile